Time;durP1;ratioP1;P1;durP2;ratioP2;P2;SDS_P1;SDS_P2;PMS_P1;PMS_P2;Temp;Humidity;BMP_temperature;BMP_pressure;BME280_temperature;BME280_humidity;BME280_pressure;Samples;Min_cycle;Max_cycle;Signal;HPM_P1;HPM_P2
2021/12/09 00:00:59;;;;;;;;;;;;;;;19.08;47.01;99143.13;2098839;28;19944;-63
2021/12/09 00:02:00;;;;;;;;;;;;;;;19.07;46.97;99153.19;2106632;28;19990;-64
2021/12/09 00:03:05;;;;;;;;;;;;;;;19.05;46.93;99145.16;2098485;28;19916;-63
2021/12/09 00:04:12;;;;;;;;;;;;;;;19.05;47.03;99134.25;2098436;28;19913;-64
2021/12/09 00:05:15;;;;;;;;;;;;;;;19.08;46.98;99148.56;2098829;28;20305;-63
2021/12/09 00:06:20;;;;;;;;;;;;;;;19.06;47.05;99144.16;2098904;28;19917;-64
2021/12/09 00:07:21;;;;;;;;;;;;;;;19.06;47.17;99137.84;2098313;28;19944;-64
2021/12/09 00:08:24;;;;;;;;;;;;;;;19.07;47.01;99142.28;2098547;28;19913;-64
2021/12/09 00:09:24;;;;;;;;;;;;;;;19.07;47.00;99145.00;2098691;28;20124;-64
2021/12/09 00:10:25;;;;;;;;;;;;;;;19.06;47.08;99146.03;2098758;28;19942;-64
2021/12/09 00:11:25;;;;;;;;;;;;;;;19.07;47.00;99150.47;2100533;28;20397;-64
2021/12/09 00:12:27;;;;;;;;;;;;;;;19.06;47.09;99151.50;2100361;28;19948;-64
2021/12/09 00:13:28;;;;;;;;;;;;;;;19.05;47.09;99149.78;2100697;28;19919;-64
2021/12/09 00:14:32;;;;;;;;;;;;;;;19.04;47.18;99148.09;2100546;28;20267;-64
2021/12/09 00:15:32;;;;;;;;;;;;;;;19.04;47.26;99148.09;2099666;28;20129;-64
2021/12/09 00:16:32;;;;;;;;;;;;;;;19.01;47.24;99143.81;2099741;28;20371;-64
2021/12/09 00:17:33;;;;;;;;;;;;;;;19.01;47.21;99143.81;2100409;28;19969;-64
2021/12/09 00:18:33;;;;;;;;;;;;;;;19.01;47.11;99148.41;2102888;28;19919;-64
2021/12/09 00:19:36;;;;;;;;;;;;;;;19.00;47.29;99141.25;2108083;28;19912;-64
2021/12/09 00:20:36;;;;;;;;;;;;;;;19.00;47.34;99138.53;2100449;28;19959;-64
2021/12/09 00:21:36;;;;;;;;;;;;;;;19.01;47.29;99142.94;2100315;28;19919;-64
2021/12/09 00:22:37;;;;;;;;;;;;;;;19.03;47.16;99151.81;2100654;28;20082;-64
2021/12/09 00:23:37;;;;;;;;;;;;;;;19.05;47.33;99144.31;2100360;28;20290;-64
2021/12/09 00:24:38;;;;;;;;;;;;;;;19.08;47.05;99152.16;2100481;28;19996;-64
2021/12/09 00:25:38;;;;;;;;;;;;;;;19.11;47.13;99146.38;2100510;28;19919;-64
2021/12/09 00:26:39;;;;;;;;;;;;;;;19.13;47.00;99140.72;2100267;28;19913;-64
2021/12/09 00:27:40;;;;;;;;;;;;;;;19.15;47.00;99142.25;2100691;28;20398;-64
2021/12/09 00:28:40;;;;;;;;;;;;;;;19.17;46.96;99137.47;2100320;28;20271;-64
2021/12/09 00:29:41;;;;;;;;;;;;;;;19.19;46.86;99135.41;2100446;28;20015;-64
2021/12/09 00:30:41;;;;;;;;;;;;;;;19.21;46.81;99138.84;2100697;28;19913;-64
2021/12/09 00:31:42;;;;;;;;;;;;;;;19.22;46.80;99140.53;2100637;28;19912;-63
2021/12/09 00:32:42;;;;;;;;;;;;;;;19.25;46.70;99133.88;2100151;28;20340;-63
2021/12/09 00:33:45;;;;;;;;;;;;;;;19.26;46.66;99133.69;2092620;28;19919;-65
2021/12/09 00:34:48;;;;;;;;;;;;;;;19.30;46.67;99133.34;2098462;28;20492;-64
2021/12/09 00:35:56;;;;;;;;;;;;;;;19.32;46.64;99134.03;2100243;28;19920;-64
2021/12/09 00:37:15;;;;;;;;;;;;;;;19.34;46.56;99137.44;2100290;28;19913;-64
2021/12/09 00:38:33;;;;;;;;;;;;;;;19.38;46.50;99136.06;2095985;28;19917;-64
2021/12/09 00:39:33;;;;;;;;;;;;;;;19.40;46.44;99139.47;2100253;28;19927;-64
2021/12/09 00:40:33;;;;;;;;;;;;;;;19.40;46.42;99128.53;2100463;28;19940;-64
2021/12/09 00:41:34;;;;;;;;;;;;;;;19.43;46.34;99137.25;2100327;28;19916;-64
2021/12/09 00:42:35;;;;;;;;;;;;;;;19.46;46.33;99145.09;2100201;28;19916;-64
2021/12/09 00:43:35;;;;;;;;;;;;;;;19.46;46.33;99136.88;2100406;28;19965;-64
2021/12/09 00:44:37;;;;;;;;;;;;;;;19.48;46.24;99139.47;2100306;28;20343;-64
2021/12/09 00:45:39;;;;;;;;;;;;;;;19.50;46.27;99142.88;2100090;28;19913;-64
2021/12/09 00:46:39;;;;;;;;;;;;;;;19.51;46.18;99144.56;2091919;28;20003;-64
2021/12/09 00:47:40;;;;;;;;;;;;;;;19.52;46.16;99145.41;2092134;28;19913;-64
2021/12/09 00:48:40;;;;;;;;;;;;;;;19.52;46.15;99146.25;2092136;28;20264;-64
2021/12/09 00:49:40;;;;;;;;;;;;;;;19.54;46.18;99143.34;2091988;28;19995;-64
2021/12/09 00:50:41;;;;;;;;;;;;;;;19.55;46.14;99143.19;2092005;28;19920;-64
2021/12/09 00:51:42;;;;;;;;;;;;;;;19.57;46.09;99143.84;2104404;28;19912;-64
2021/12/09 00:52:42;;;;;;;;;;;;;;;19.58;46.04;99140.09;2108083;28;19955;-63
2021/12/09 00:53:42;;;;;;;;;;;;;;;19.59;46.05;99141.78;2100278;28;19912;-64
2021/12/09 00:54:43;;;;;;;;;;;;;;;19.60;46.01;99143.50;2100228;28;19999;-64
2021/12/09 00:55:43;;;;;;;;;;;;;;;19.62;46.00;99140.59;2100386;28;19912;-64
2021/12/09 00:56:43;;;;;;;;;;;;;;;19.63;45.94;99140.41;2099833;28;19919;-64
2021/12/09 00:57:44;;;;;;;;;;;;;;;19.64;45.96;99144.84;2091996;28;20399;-64
2021/12/09 00:58:44;;;;;;;;;;;;;;;19.65;45.97;99143.84;2091659;28;19923;-64
2021/12/09 00:59:45;;;;;;;;;;;;;;;19.66;45.92;99142.78;2094762;28;20676;-64
2021/12/09 01:00:46;;;;;;;;;;;;;;;19.67;45.91;99147.28;2100222;28;19943;-64
2021/12/09 01:01:46;;;;;;;;;;;;;;;19.68;45.88;99146.25;2096493;28;19962;-63
2021/12/09 01:02:47;;;;;;;;;;;;;;;19.68;45.89;99145.41;2091860;28;19916;-64
2021/12/09 01:03:47;;;;;;;;;;;;;;;19.70;45.94;99149.66;2093899;28;19912;-63
2021/12/09 01:04:48;;;;;;;;;;;;;;;19.70;45.93;99157.00;2099930;28;20276;-64
2021/12/09 01:05:49;;;;;;;;;;;;;;;19.70;45.94;99149.66;2099892;28;20333;-64
2021/12/09 01:06:49;;;;;;;;;;;;;;;19.72;45.82;99151.34;2107718;28;19912;-64
2021/12/09 01:07:50;;;;;;;;;;;;;;;19.72;45.82;99152.22;2107812;28;19961;-64
2021/12/09 01:08:50;;;;;;;;;;;;;;;19.73;45.80;99153.06;2100226;28;19961;-64
2021/12/09 01:09:51;;;;;;;;;;;;;;;19.74;45.89;99160.22;2100264;28;20280;-64
2021/12/09 01:10:51;;;;;;;;;;;;;;;19.73;45.87;99151.19;2107892;28;19962;-64
2021/12/09 01:11:51;;;;;;;;;;;;;;;19.73;45.94;99158.53;2107882;28;19918;-64
2021/12/09 01:12:52;;;;;;;;;;;;;;;19.73;45.79;99159.38;2100108;28;19927;-64
2021/12/09 01:13:52;;;;;;;;;;;;;;;19.73;45.83;99153.06;2107814;28;19919;-64
2021/12/09 01:14:52;;;;;;;;;;;;;;;19.73;45.82;99159.38;2099789;28;20292;-64
2021/12/09 01:15:53;;;;;;;;;;;;;;;19.73;45.80;99164.00;2099784;28;19916;-64
2021/12/09 01:16:53;;;;;;;;;;;;;;;19.70;45.76;99155.13;2099990;28;20355;-64
2021/12/09 01:17:54;;;;;;;;;;;;;;;19.73;45.78;99158.53;2099923;28;19913;-65
2021/12/09 01:18:55;;;;;;;;;;;;;;;19.70;45.89;99160.59;2100108;28;19943;-64
2021/12/09 01:19:56;;;;;;;;;;;;;;;19.70;45.86;99163.31;2098539;28;20272;-64
2021/12/09 01:20:57;;;;;;;;;;;;;;;19.70;45.70;99163.31;2100052;28;19981;-64
2021/12/09 01:21:57;;;;;;;;;;;;;;;19.70;45.95;99166.06;2106975;28;19919;-64
2021/12/09 01:22:58;;;;;;;;;;;;;;;19.70;45.86;99168.78;2103787;28;19958;-64
2021/12/09 01:23:58;;;;;;;;;;;;;;;19.69;46.04;99164.34;2091697;28;19913;-64
2021/12/09 01:24:59;;;;;;;;;;;;;;;19.68;45.94;99168.13;2097239;28;20412;-64
2021/12/09 01:26:02;;;;;;;;;;;;;;;19.67;45.89;99166.44;2107696;28;20009;-64
2021/12/09 01:27:03;;;;;;;;;;;;;;;19.67;45.95;99171.88;2107193;28;19912;-65
2021/12/09 01:28:05;;;;;;;;;;;;;;;19.67;46.04;99169.16;2090986;28;20386;-64
2021/12/09 01:29:14;;;;;;;;;;;;;;;19.65;46.01;99168.44;2099316;28;19956;-64
2021/12/09 01:30:17;;;;;;;;;;;;;;;19.67;45.94;99177.34;2099859;28;19946;-64
2021/12/09 01:31:25;;;;;;;;;;;;;;;19.67;46.00;99177.34;2099792;28;19912;-64
2021/12/09 01:32:30;;;;;;;;;;;;;;;19.66;46.00;99175.59;2099751;28;19920;-64
2021/12/09 01:33:30;;;;;;;;;;;;;;;19.66;45.99;99174.75;2093569;28;19963;-64
2021/12/09 01:34:31;;;;;;;;;;;;;;;19.66;46.08;99178.34;2091455;28;19920;-64
2021/12/09 01:35:34;;;;;;;;;;;;;;;19.65;46.04;99178.53;2091733;28;20303;-63
2021/12/09 01:36:36;;;;;;;;;;;;;;;19.63;46.07;99178.69;2091671;28;19917;-64
2021/12/09 01:37:38;;;;;;;;;;;;;;;19.63;46.02;99186.91;2091411;28;20007;-64
2021/12/09 01:38:38;;;;;;;;;;;;;;;19.63;46.11;99186.91;2091691;28;19951;-64
2021/12/09 01:39:39;;;;;;;;;;;;;;;19.62;46.07;99185.22;2095037;28;19913;-63
2021/12/09 01:40:39;;;;;;;;;;;;;;;19.63;46.18;99186.06;2099594;28;19919;-64
2021/12/09 01:41:40;;;;;;;;;;;;;;;19.62;46.17;99187.94;2098961;28;20023;-64
2021/12/09 01:42:40;;;;;;;;;;;;;;;19.62;46.11;99185.22;2099239;28;20026;-64
2021/12/09 01:43:41;;;;;;;;;;;;;;;19.62;46.17;99184.31;2092016;28;19912;-64
2021/12/09 01:44:41;;;;;;;;;;;;;;;19.62;46.15;99184.31;2091723;28;19919;-64
2021/12/09 01:45:41;;;;;;;;;;;;;;;19.61;46.04;99188.94;2091451;28;19959;-64
2021/12/09 01:46:42;;;;;;;;;;;;;;;19.59;46.18;99188.25;2091601;28;20371;-64
2021/12/09 01:47:42;;;;;;;;;;;;;;;19.59;46.26;99191.00;2092359;28;19916;-64
2021/12/09 01:48:44;;;;;;;;;;;;;;;19.59;46.17;99188.25;2099897;28;19952;-63
2021/12/09 01:49:45;;;;;;;;;;;;;;;19.58;46.22;99183.84;2099542;28;20403;-64
2021/12/09 01:50:45;;;;;;;;;;;;;;;19.58;46.21;99183.84;2099848;28;20329;-64
2021/12/09 01:51:46;;;;;;;;;;;;;;;19.57;46.23;99192.19;2093270;28;19913;-64
2021/12/09 01:52:47;;;;;;;;;;;;;;;19.56;46.24;99191.34;2092703;28;19916;-64
2021/12/09 01:53:47;;;;;;;;;;;;;;;19.55;46.28;99197.88;2099777;28;19916;-64
2021/12/09 01:54:48;;;;;;;;;;;;;;;19.55;46.25;99195.13;2099844;28;19912;-65
2021/12/09 01:55:48;;;;;;;;;;;;;;;19.56;46.22;99195.97;2099784;28;19920;-64
2021/12/09 01:56:48;;;;;;;;;;;;;;;19.55;46.27;99194.25;2099504;28;19914;-63
2021/12/09 01:57:50;;;;;;;;;;;;;;;19.53;46.29;99197.19;2099075;28;19920;-64
2021/12/09 01:58:58;;;;;;;;;;;;;;;19.53;46.30;99197.19;2091397;28;20375;-63
2021/12/09 01:59:58;;;;;;;;;;;;;;;19.52;46.38;99200.91;2091557;28;20359;-64
2021/12/09 02:00:58;;;;;;;;;;;;;;;19.52;46.34;99200.91;2091356;28;20248;-66
2021/12/09 02:01:59;;;;;;;;;;;;;;;19.51;46.40;99198.38;2098732;28;20263;-64
2021/12/09 02:02:59;;;;;;;;;;;;;;;19.51;46.49;99209.31;2099681;28;19912;-64
2021/12/09 02:04:00;;;;;;;;;;;;;;;19.49;46.45;99201.28;2099726;28;19955;-64
2021/12/09 02:05:01;;;;;;;;;;;;;;;19.49;46.41;99204.88;2099681;28;20359;-64
2021/12/09 02:06:01;;;;;;;;;;;;;;;19.50;46.41;99208.47;2099556;28;20299;-63
2021/12/09 02:07:02;;;;;;;;;;;;;;;19.49;46.40;99212.22;2099573;28;19912;-63
2021/12/09 02:08:02;;;;;;;;;;;;;;;19.49;46.43;99212.22;2099723;28;20334;-64
2021/12/09 02:09:03;;;;;;;;;;;;;;;19.50;46.43;99213.94;2099675;28;19913;-64
2021/12/09 02:10:04;;;;;;;;;;;;;;;19.49;46.46;99212.22;2099521;28;19916;-64
2021/12/09 02:11:05;;;;;;;;;;;;;;;19.47;46.45;99208.78;2099603;28;19916;-64
2021/12/09 02:12:06;;;;;;;;;;;;;;;19.48;46.50;99210.53;2098952;28;19912;-64
2021/12/09 02:13:07;;;;;;;;;;;;;;;19.47;46.45;99214.25;2098850;28;20383;-64
2021/12/09 02:14:08;;;;;;;;;;;;;;;19.47;46.53;99217.00;2099420;28;19920;-64
2021/12/09 02:15:08;;;;;;;;;;;;;;;19.45;46.58;99217.19;2099628;28;19916;-64
2021/12/09 02:16:09;;;;;;;;;;;;;;;19.46;46.55;99212.56;2093936;28;19920;-63
2021/12/09 02:17:11;;;;;;;;;;;;;;;19.44;46.51;99215.47;2091212;28;20277;-64
2021/12/09 02:18:12;;;;;;;;;;;;;;;19.44;46.56;99212.72;2092488;28;19912;-64
2021/12/09 02:19:14;;;;;;;;;;;;;;;19.43;46.71;99215.66;2097116;28;19912;-64
2021/12/09 02:20:15;;;;;;;;;;;;;;;19.41;46.67;99212.25;2091155;28;19940;-64
2021/12/09 02:21:16;;;;;;;;;;;;;;;19.41;46.73;99214.97;2091294;28;19967;-64
2021/12/09 02:22:16;;;;;;;;;;;;;;;19.40;46.76;99218.72;2089293;28;20433;-67
2021/12/09 02:23:17;;;;;;;;;;;;;;;19.41;46.65;99220.44;2083008;28;20529;-67
2021/12/09 02:24:18;;;;;;;;;;;;;;;19.40;46.66;99226.91;2082279;28;19917;-67
2021/12/09 02:25:19;;;;;;;;;;;;;;;19.40;46.75;99232.38;2083502;28;20280;-67
2021/12/09 02:26:23;;;;;;;;;;;;;;;19.38;46.87;99226.25;2089368;28;20666;-67
2021/12/09 02:27:24;;;;;;;;;;;;;;;19.38;46.76;99224.38;2091002;28;19927;-67
2021/12/09 02:28:24;;;;;;;;;;;;;;;19.37;46.76;99230.00;2081775;28;19924;-67
2021/12/09 02:29:25;;;;;;;;;;;;;;;19.37;46.84;99225.38;2083607;28;20162;-67
2021/12/09 02:30:25;;;;;;;;;;;;;;;19.35;46.87;99221.13;2082971;28;19927;-67
2021/12/09 02:31:27;;;;;;;;;;;;;;;19.36;46.82;99228.31;2083743;28;19916;-67
2021/12/09 02:32:27;;;;;;;;;;;;;;;19.33;46.85;99224.03;2090128;28;19969;-65
2021/12/09 02:33:27;;;;;;;;;;;;;;;19.35;46.86;99227.44;2098996;28;20420;-65
2021/12/09 02:34:28;;;;;;;;;;;;;;;19.32;46.94;99226.94;2099399;28;19920;-65
2021/12/09 02:35:28;;;;;;;;;;;;;;;19.32;47.05;99229.66;2099426;28;19913;-65
2021/12/09 02:36:36;;;;;;;;;;;;;;;19.32;46.93;99216.00;2099502;28;20311;-64
2021/12/09 02:37:37;;;;;;;;;;;;;;;19.31;46.91;99220.63;2099750;28;19919;-64
2021/12/09 02:38:43;;;;;;;;;;;;;;;19.31;46.89;99225.25;2099496;28;20391;-65
2021/12/09 02:39:44;;;;;;;;;;;;;;;19.31;46.95;99225.25;2099323;28;20375;-65
2021/12/09 02:40:46;;;;;;;;;;;;;;;19.30;46.98;99220.78;2099439;28;20311;-65
2021/12/09 02:41:48;;;;;;;;;;;;;;;19.27;47.05;99220.09;2099508;28;19923;-65
2021/12/09 02:42:49;;;;;;;;;;;;;;;19.26;47.04;99223.88;2099503;28;20436;-64
2021/12/09 02:43:51;;;;;;;;;;;;;;;19.27;47.14;99224.72;2099676;28;19977;-65
2021/12/09 02:44:55;;;;;;;;;;;;;;;19.26;47.09;99229.31;2099425;28;19916;-64
2021/12/09 02:45:56;;;;;;;;;;;;;;;19.26;47.09;99229.31;2099446;28;19974;-65
2021/12/09 02:46:56;;;;;;;;;;;;;;;19.26;47.16;99228.47;2099436;28;19913;-65
2021/12/09 02:47:57;;;;;;;;;;;;;;;19.26;47.08;99228.47;2099399;28;19919;-65
2021/12/09 02:48:57;;;;;;;;;;;;;;;19.25;47.04;99232.22;2099411;28;19913;-64
2021/12/09 02:49:58;;;;;;;;;;;;;;;19.25;47.09;99227.59;2099400;28;20370;-65
2021/12/09 02:51:00;;;;;;;;;;;;;;;19.24;47.23;99225.91;2099672;28;20402;-64
2021/12/09 02:52:01;;;;;;;;;;;;;;;19.24;47.28;99231.38;2107178;28;19919;-65
2021/12/09 02:53:02;;;;;;;;;;;;;;;19.24;47.21;99225.91;2107078;28;20314;-65
2021/12/09 02:54:03;;;;;;;;;;;;;;;19.23;47.17;99235.16;2099365;28;19970;-64
2021/12/09 02:55:03;;;;;;;;;;;;;;;19.23;47.30;99231.53;2099500;28;19959;-64
2021/12/09 02:56:04;;;;;;;;;;;;;;;19.23;47.16;99235.16;2091448;28;20382;-64
2021/12/09 02:57:07;;;;;;;;;;;;;;;19.21;47.21;99231.72;2090546;28;20221;-63
2021/12/09 02:58:07;;;;;;;;;;;;;;;19.23;47.13;99242.47;2098572;28;19921;-64
2021/12/09 02:59:08;;;;;;;;;;;;;;;19.22;47.26;99233.41;2105093;28;19916;-64
2021/12/09 03:00:09;;;;;;;;;;;;;;;19.21;47.14;99242.66;2099152;28;20405;-65
2021/12/09 03:01:14;;;;;;;;;;;;;;;19.22;47.18;99238.88;2099276;28;19944;-64
2021/12/09 03:02:14;;;;;;;;;;;;;;;19.19;47.35;99239.22;2099411;28;19916;-65
2021/12/09 03:03:15;;;;;;;;;;;;;;;19.19;47.24;99233.78;2098933;28;19912;-64
2021/12/09 03:04:15;;;;;;;;;;;;;;;19.18;47.32;99237.53;2091336;28;19955;-64
2021/12/09 03:05:16;;;;;;;;;;;;;;;19.17;47.20;99244.00;2091095;28;19921;-64
2021/12/09 03:06:17;;;;;;;;;;;;;;;19.17;47.32;99243.16;2090958;28;19913;-63
2021/12/09 03:07:18;;;;;;;;;;;;;;;19.16;47.27;99236.84;2091086;28;19912;-63
2021/12/09 03:08:23;;;;;;;;;;;;;;;19.16;47.27;99245.03;2090835;28;19913;-64
2021/12/09 03:09:25;;;;;;;;;;;;;;;19.16;47.27;99244.19;2090961;28;19920;-64
2021/12/09 03:10:25;;;;;;;;;;;;;;;19.15;47.34;99254.25;2090777;28;20457;-64
2021/12/09 03:11:26;;;;;;;;;;;;;;;19.15;47.31;99251.53;2090975;28;20377;-63
2021/12/09 03:12:29;;;;;;;;;;;;;;;19.14;47.41;99249.81;2091547;28;19955;-64
2021/12/09 03:13:29;;;;;;;;;;;;;;;19.14;47.28;99252.56;2090932;28;19913;-64
2021/12/09 03:14:29;;;;;;;;;;;;;;;19.12;47.35;99254.59;2096951;28;19913;-63
2021/12/09 03:15:33;;;;;;;;;;;;;;;19.12;47.27;99257.34;2099248;28;19913;-64
2021/12/09 03:16:33;;;;;;;;;;;;;;;19.13;47.33;99256.28;2099097;28;19920;-64
2021/12/09 03:17:35;;;;;;;;;;;;;;;19.12;47.35;99254.59;2099402;28;20358;-64
2021/12/09 03:18:46;;;;;;;;;;;;;;;19.11;47.40;99252.03;2098427;28;19930;-64
2021/12/09 03:19:47;;;;;;;;;;;;;;;19.11;47.38;99254.75;2098521;28;19970;-65
2021/12/09 03:20:47;;;;;;;;;;;;;;;19.10;47.36;99253.91;2099037;28;20270;-64
2021/12/09 03:21:48;;;;;;;;;;;;;;;19.10;47.42;99255.78;2091831;28;19913;-64
2021/12/09 03:22:49;;;;;;;;;;;;;;;19.09;47.55;99254.09;2090953;28;19940;-64
2021/12/09 03:23:50;;;;;;;;;;;;;;;19.08;47.54;99250.50;2090901;28;20287;-64
2021/12/09 03:24:51;;;;;;;;;;;;;;;19.09;47.32;99252.22;2090728;28;20248;-64
2021/12/09 03:25:51;;;;;;;;;;;;;;;19.07;47.48;99246.06;2090712;28;19963;-64
2021/12/09 03:26:56;;;;;;;;;;;;;;;19.08;47.54;99257.84;2090822;28;19920;-64
2021/12/09 03:27:56;;;;;;;;;;;;;;;19.06;47.46;99255.28;2090835;28;19992;-64
2021/12/09 03:28:58;;;;;;;;;;;;;;;19.07;47.49;99257.00;2090757;28;19913;-64
2021/12/09 03:29:59;;;;;;;;;;;;;;;19.06;47.51;99261.59;2090588;28;20402;-64
2021/12/09 03:30:59;;;;;;;;;;;;;;;19.05;47.41;99259.88;2098434;28;20322;-64
2021/12/09 03:32:01;;;;;;;;;;;;;;;19.06;47.56;99256.16;2098416;28;19919;-63
2021/12/09 03:33:02;;;;;;;;;;;;;;;19.04;47.56;99251.88;2090690;28;19917;-63
2021/12/09 03:34:03;;;;;;;;;;;;;;;19.04;47.47;99257.34;2090687;28;19917;-64
2021/12/09 03:35:05;;;;;;;;;;;;;;;19.03;47.58;99255.63;2090694;28;19912;-64
2021/12/09 03:36:06;;;;;;;;;;;;;;;19.03;47.60;99256.50;2090492;28;19939;-64
2021/12/09 03:37:08;;;;;;;;;;;;;;;19.02;47.58;99256.66;2090893;28;19919;-63
2021/12/09 03:38:09;;;;;;;;;;;;;;;19.01;47.58;99263.13;2081745;28;19913;-64
2021/12/09 03:39:15;;;;;;;;;;;;;;;19.01;47.70;99268.59;2087135;28;20409;-64
2021/12/09 03:40:16;;;;;;;;;;;;;;;19.01;47.62;99260.38;2090790;28;20283;-63
2021/12/09 03:41:16;;;;;;;;;;;;;;;18.99;47.70;99259.72;2093391;28;19921;-64
2021/12/09 03:42:17;;;;;;;;;;;;;;;18.99;47.72;99262.47;2098962;28;19912;-64
2021/12/09 03:43:18;;;;;;;;;;;;;;;18.98;47.74;99260.72;2098842;28;19916;-64
2021/12/09 03:44:19;;;;;;;;;;;;;;;18.98;47.57;99263.47;2094904;28;19912;-64
2021/12/09 03:45:19;;;;;;;;;;;;;;;18.98;47.74;99258.00;2089935;28;19991;-63
2021/12/09 03:46:19;;;;;;;;;;;;;;;18.97;47.71;99257.16;2090634;28;20302;-64
2021/12/09 03:47:22;;;;;;;;;;;;;;;18.96;47.66;99258.19;2090786;28;19912;-63
2021/12/09 03:48:23;;;;;;;;;;;;;;;18.95;47.78;99263.81;2097513;28;20379;-64
2021/12/09 03:49:24;;;;;;;;;;;;;;;18.95;47.74;99258.34;2098994;28;20524;-63
2021/12/09 03:50:24;;;;;;;;;;;;;;;18.96;47.79;99265.50;2091331;28;19980;-64
2021/12/09 03:51:24;;;;;;;;;;;;;;;18.96;47.80;99271.84;2098097;28;19920;-64
2021/12/09 03:52:26;;;;;;;;;;;;;;;18.94;47.73;99267.56;2098222;28;19989;-64
2021/12/09 03:53:26;;;;;;;;;;;;;;;18.93;47.77;99261.22;2090655;28;20013;-64
2021/12/09 03:54:27;;;;;;;;;;;;;;;18.93;47.72;99268.59;2090734;28;19952;-63
2021/12/09 03:55:27;;;;;;;;;;;;;;;18.92;47.78;99267.72;2095720;28;19961;-63
2021/12/09 03:56:28;;;;;;;;;;;;;;;18.93;47.85;99277.63;2098746;28;19912;-64
2021/12/09 03:57:28;;;;;;;;;;;;;;;18.92;47.70;99269.63;2099061;28;20377;-64
2021/12/09 03:58:29;;;;;;;;;;;;;;;18.92;47.89;99272.34;2098934;28;20275;-64
2021/12/09 03:59:30;;;;;;;;;;;;;;;18.91;47.79;99276.94;2099021;28;20287;-65
2021/12/09 04:00:30;;;;;;;;;;;;;;;18.91;47.84;99278.81;2098232;28;20406;-64
2021/12/09 04:01:31;;;;;;;;;;;;;;;18.90;47.87;99277.97;2098376;28;19935;-64
2021/12/09 04:02:32;;;;;;;;;;;;;;;18.90;47.86;99277.13;2098926;28;19919;-65
2021/12/09 04:03:32;;;;;;;;;;;;;;;18.89;47.89;99276.28;2098977;28;19959;-65
2021/12/09 04:04:32;;;;;;;;;;;;;;;18.90;47.79;99282.59;2099162;28;19913;-64
2021/12/09 04:05:33;;;;;;;;;;;;;;;18.89;47.89;99275.41;2098914;28;20007;-65
2021/12/09 04:06:33;;;;;;;;;;;;;;;18.88;47.92;99279.16;2099106;28;20425;-64
2021/12/09 04:07:34;;;;;;;;;;;;;;;18.88;47.83;99281.88;2098890;28;19912;-64
2021/12/09 04:08:34;;;;;;;;;;;;;;;18.87;47.86;99282.94;2098898;28;19970;-65
2021/12/09 04:09:35;;;;;;;;;;;;;;;18.87;47.88;99277.47;2098944;28;20411;-65
2021/12/09 04:10:37;;;;;;;;;;;;;;;18.85;47.84;99281.19;2098823;28;20434;-64
2021/12/09 04:11:37;;;;;;;;;;;;;;;18.84;47.88;99279.50;2098851;28;20275;-65
2021/12/09 04:12:37;;;;;;;;;;;;;;;18.86;47.98;99282.03;2098904;28;19913;-65
2021/12/09 04:13:38;;;;;;;;;;;;;;;18.84;48.05;99290.44;2098861;28;19916;-65
2021/12/09 04:14:39;;;;;;;;;;;;;;;18.84;48.04;99282.22;2098222;28;19919;-64
2021/12/09 04:15:40;;;;;;;;;;;;;;;18.82;47.86;99286.16;2098341;28;19946;-64
2021/12/09 04:16:41;;;;;;;;;;;;;;;18.82;47.96;99292.47;2098915;28;19977;-64
2021/12/09 04:17:41;;;;;;;;;;;;;;;18.82;48.01;99295.19;2098910;28;19993;-65
2021/12/09 04:18:42;;;;;;;;;;;;;;;18.82;48.05;99297.06;2098891;28;19995;-65
2021/12/09 04:19:47;;;;;;;;;;;;;;;18.81;47.93;99301.69;2098909;28;19912;-64
2021/12/09 04:20:48;;;;;;;;;;;;;;;18.80;47.93;99299.97;2099088;28;20270;-64
2021/12/09 04:21:49;;;;;;;;;;;;;;;18.79;47.96;99292.81;2098942;28;19912;-64
2021/12/09 04:22:49;;;;;;;;;;;;;;;18.78;48.08;99296.53;2098815;28;19978;-65
2021/12/09 04:23:49;;;;;;;;;;;;;;;18.78;47.94;99293.81;2098857;28;19912;-65
2021/12/09 04:24:51;;;;;;;;;;;;;;;18.79;47.96;99294.66;2099055;28;19913;-64
2021/12/09 04:25:52;;;;;;;;;;;;;;;18.78;48.02;99291.09;2098899;28;19956;-64
2021/12/09 04:26:52;;;;;;;;;;;;;;;18.77;48.11;99289.38;2098916;28;19913;-65
2021/12/09 04:27:55;;;;;;;;;;;;;;;18.78;47.98;99290.22;2098397;28;19913;-64
2021/12/09 04:28:55;;;;;;;;;;;;;;;18.77;47.96;99297.56;2098291;28;19916;-65
2021/12/09 04:29:55;;;;;;;;;;;;;;;18.77;47.98;99300.31;2098915;28;20240;-64
2021/12/09 04:30:55;;;;;;;;;;;;;;;18.77;48.06;99297.56;2098753;28;20375;-65
2021/12/09 04:31:56;;;;;;;;;;;;;;;18.76;48.03;99303.19;2098780;28;20287;-64
2021/12/09 04:32:56;;;;;;;;;;;;;;;18.76;48.01;99304.03;2098642;28;19920;-64
2021/12/09 04:33:57;;;;;;;;;;;;;;;18.76;48.05;99306.78;2098085;28;19913;-65
2021/12/09 04:34:57;;;;;;;;;;;;;;;18.75;48.08;99307.78;2098337;28;19919;-64
2021/12/09 04:35:58;;;;;;;;;;;;;;;18.74;48.24;99308.81;2098284;28;19912;-65
2021/12/09 04:36:59;;;;;;;;;;;;;;;18.73;48.04;99304.34;2098259;28;19995;-65
2021/12/09 04:37:59;;;;;;;;;;;;;;;18.73;48.12;99301.63;2098818;28;19919;-64
2021/12/09 04:38:59;;;;;;;;;;;;;;;18.72;48.22;99308.13;2098081;28;19916;-65
2021/12/09 04:40:00;;;;;;;;;;;;;;;18.72;48.18;99310.84;2098248;28;19917;-65
2021/12/09 04:41:01;;;;;;;;;;;;;;;18.72;48.14;99316.31;2098793;28;19923;-65
2021/12/09 04:42:01;;;;;;;;;;;;;;;18.72;48.21;99315.47;2098861;28;20371;-65
2021/12/09 04:43:02;;;;;;;;;;;;;;;18.71;48.10;99317.31;2099052;28;19912;-65
2021/12/09 04:44:02;;;;;;;;;;;;;;;18.71;48.09;99321.91;2098743;28;19916;-65
2021/12/09 04:45:04;;;;;;;;;;;;;;;18.70;48.06;99310.16;2092839;28;19913;-65
2021/12/09 04:46:04;;;;;;;;;;;;;;;18.69;48.18;99313.91;2090493;28;19913;-65
2021/12/09 04:47:04;;;;;;;;;;;;;;;18.69;48.30;99313.91;2090501;28;19916;-65
2021/12/09 04:48:06;;;;;;;;;;;;;;;18.68;48.17;99320.38;2090540;28;19916;-64
2021/12/09 04:49:06;;;;;;;;;;;;;;;18.69;48.25;99313.91;2090615;28;19952;-65
2021/12/09 04:50:07;;;;;;;;;;;;;;;18.68;48.21;99320.38;2090383;28;19920;-65
2021/12/09 04:51:08;;;;;;;;;;;;;;;18.68;48.25;99323.09;2090458;28;19913;-65
2021/12/09 04:52:08;;;;;;;;;;;;;;;18.69;48.24;99327.56;2090399;28;19920;-64
2021/12/09 04:53:09;;;;;;;;;;;;;;;18.67;48.19;99326.88;2089716;28;19920;-64
2021/12/09 04:54:10;;;;;;;;;;;;;;;18.67;48.18;99324.13;2081635;28;19936;-65
2021/12/09 04:55:11;;;;;;;;;;;;;;;18.66;48.29;99325.13;2089983;28;19936;-65
2021/12/09 04:56:11;;;;;;;;;;;;;;;18.66;48.23;99319.69;2097992;28;19920;-64
2021/12/09 04:57:12;;;;;;;;;;;;;;;18.62;48.22;99315.59;2099259;28;19912;-65
2021/12/09 04:58:13;;;;;;;;;;;;;;;18.64;48.33;99328.06;2091346;28;19916;-65
2021/12/09 04:59:13;;;;;;;;;;;;;;;18.64;48.28;99321.72;2091603;28;19913;-65
2021/12/09 05:00:21;;;;;;;;;;;;;;;18.63;48.22;99320.88;2099545;28;19913;-65
2021/12/09 05:01:21;;;;;;;;;;;;;;;18.62;48.25;99323.78;2098596;28;19961;-64
2021/12/09 05:02:30;;;;;;;;;;;;;;;18.62;48.37;99321.06;2091409;28;19916;-64
2021/12/09 05:03:31;;;;;;;;;;;;;;;18.62;48.33;99329.25;2092079;28;20419;-64
2021/12/09 05:04:31;;;;;;;;;;;;;;;18.61;48.33;99331.09;2091913;28;20257;-64
2021/12/09 05:05:35;;;;;;;;;;;;;;;18.61;48.31;99333.81;2091944;28;19976;-65
2021/12/09 05:06:36;;;;;;;;;;;;;;;18.61;48.19;99332.97;2091773;28;19952;-65
2021/12/09 05:07:36;;;;;;;;;;;;;;;18.60;48.33;99325.81;2091891;28;19919;-64
2021/12/09 05:08:38;;;;;;;;;;;;;;;18.59;48.21;99329.56;2092008;28;19913;-64
2021/12/09 05:09:49;;;;;;;;;;;;;;;18.58;48.42;99331.44;2091255;28;19912;-65
2021/12/09 05:11:00;;;;;;;;;;;;;;;18.60;48.26;99331.28;2091330;28;19917;-64
2021/12/09 05:12:00;;;;;;;;;;;;;;;18.59;48.24;99337.75;2091716;28;19981;-65
2021/12/09 05:13:02;;;;;;;;;;;;;;;18.58;48.19;99341.50;2091877;28;19919;-65
2021/12/09 05:14:03;;;;;;;;;;;;;;;18.58;48.41;99344.22;2091957;28;19919;-65
2021/12/09 05:15:03;;;;;;;;;;;;;;;18.58;48.30;99341.50;2091984;28;19919;-65
2021/12/09 05:16:05;;;;;;;;;;;;;;;18.58;48.36;99344.22;2091806;28;19920;-64
2021/12/09 05:17:05;;;;;;;;;;;;;;;18.59;48.34;99343.19;2091838;28;19921;-65
2021/12/09 05:18:05;;;;;;;;;;;;;;;18.57;48.25;99345.22;2091836;28;19912;-65
2021/12/09 05:19:06;;;;;;;;;;;;;;;18.57;48.35;99348.84;2091820;28;19919;-65
2021/12/09 05:20:07;;;;;;;;;;;;;;;18.57;48.37;99345.22;2091798;28;19913;-64